EHAM

Amsterdam Airport Schiphol

ICAO Code EHAM
IATA Code AMS
Name Amsterdam Airport Schiphol
Location Amsterdam, North-Holland, NL
Elevation -11 Feet / -3.4 Meters
Latitude 52.30860138
Longitude 4.76388979
METAR EHAM 080725Z 14011KT 110V170 9999 FEW040 09/03 Q1013 NOSIG
Extra information Display Charts and CFS
Display NOTAMS
Runway Length Width Surface Elevation
04 6608 ft 148 ft ASP -13 ft
06 11483 ft 148 ft ASP -11 ft
09 11329 ft 148 ft ASP -12 ft
18C 10826 ft 148 ft ASP -13 ft
18L 11155 ft 148 ft ASP -12 ft
18R 12467 ft 198 ft ASP -13 ft
22 6608 ft 148 ft ASP -14 ft
24 11483 ft 148 ft ASP -12 ft
27 11329 ft 148 ft ASP -13 ft
36C 10826 ft 148 ft ASP -12 ft
36R 11155 ft 148 ft ASP -11 ft
36L 12467 ft 198 ft ASP -12 ft